sensor_id;sensor_type;location;lat;lon;timestamp;temperature;humidity
69335;SHT31;56477;52.742;15.242;2023-08-17T00:02:12;19.21;83.94
69335;SHT31;56477;52.742;15.242;2023-08-17T00:04:39;19.14;84.14
69335;SHT31;56477;52.742;15.242;2023-08-17T00:07:05;19.15;84.10
69335;SHT31;56477;52.742;15.242;2023-08-17T00:09:32;19.10;84.35
69335;SHT31;56477;52.742;15.242;2023-08-17T00:11:58;19.03;84.67
69335;SHT31;56477;52.742;15.242;2023-08-17T00:14:24;19.04;84.50
69335;SHT31;56477;52.742;15.242;2023-08-17T00:16:50;19.01;84.51
69335;SHT31;56477;52.742;15.242;2023-08-17T00:19:16;19.00;84.77
69335;SHT31;56477;52.742;15.242;2023-08-17T00:21:44;19.00;85.13
69335;SHT31;56477;52.742;15.242;2023-08-17T00:24:10;18.85;85.00
69335;SHT31;56477;52.742;15.242;2023-08-17T00:26:36;18.83;84.77
69335;SHT31;56477;52.742;15.242;2023-08-17T00:29:02;18.90;85.10
69335;SHT31;56477;52.742;15.242;2023-08-17T00:31:28;18.84;84.78
69335;SHT31;56477;52.742;15.242;2023-08-17T00:33:54;18.87;84.74
69335;SHT31;56477;52.742;15.242;2023-08-17T00:36:20;18.81;85.19
69335;SHT31;56477;52.742;15.242;2023-08-17T00:38:46;18.66;86.47
69335;SHT31;56477;52.742;15.242;2023-08-17T00:41:12;18.60;86.78
69335;SHT31;56477;52.742;15.242;2023-08-17T00:43:38;18.56;86.69
69335;SHT31;56477;52.742;15.242;2023-08-17T00:46:04;18.47;86.57
69335;SHT31;56477;52.742;15.242;2023-08-17T00:48:30;18.39;87.06
69335;SHT31;56477;52.742;15.242;2023-08-17T00:50:57;18.35;87.48
69335;SHT31;56477;52.742;15.242;2023-08-17T00:53:26;18.28;86.96
69335;SHT31;56477;52.742;15.242;2023-08-17T00:55:53;18.35;86.20
69335;SHT31;56477;52.742;15.242;2023-08-17T00:58:20;18.39;86.10
69335;SHT31;56477;52.742;15.242;2023-08-17T01:00:47;18.42;86.26
69335;SHT31;56477;52.742;15.242;2023-08-17T01:03:13;18.45;86.07
69335;SHT31;56477;52.742;15.242;2023-08-17T01:05:39;18.36;86.40
69335;SHT31;56477;52.742;15.242;2023-08-17T01:08:05;18.37;86.32
69335;SHT31;56477;52.742;15.242;2023-08-17T01:10:41;18.39;86.25
69335;SHT31;56477;52.742;15.242;2023-08-17T01:13:17;18.36;86.25
69335;SHT31;56477;52.742;15.242;2023-08-17T01:15:50;18.35;86.92
69335;SHT31;56477;52.742;15.242;2023-08-17T01:18:23;18.28;86.89
69335;SHT31;56477;52.742;15.242;2023-08-17T01:20:53;18.21;87.54
69335;SHT31;56477;52.742;15.242;2023-08-17T01:23:20;18.16;88.12
69335;SHT31;56477;52.742;15.242;2023-08-17T01:25:46;18.10;87.73
69335;SHT31;56477;52.742;15.242;2023-08-17T01:28:12;18.01;87.52
69335;SHT31;56477;52.742;15.242;2023-08-17T01:33:40;17.94;88.12
69335;SHT31;56477;52.742;15.242;2023-08-17T01:36:37;17.91;87.91
69335;SHT31;56477;52.742;15.242;2023-08-17T01:39:05;17.89;87.37
69335;SHT31;56477;52.742;15.242;2023-08-17T01:41:33;17.95;86.86
69335;SHT31;56477;52.742;15.242;2023-08-17T01:43:59;18.01;87.18
69335;SHT31;56477;52.742;15.242;2023-08-17T01:46:30;18.05;86.65
69335;SHT31;56477;52.742;15.242;2023-08-17T01:48:57;18.13;86.49
69335;SHT31;56477;52.742;15.242;2023-08-17T01:51:23;18.19;86.17
69335;SHT31;56477;52.742;15.242;2023-08-17T01:53:49;18.21;84.97
69335;SHT31;56477;52.742;15.242;2023-08-17T01:56:15;18.33;84.36
69335;SHT31;56477;52.742;15.242;2023-08-17T01:58:41;18.35;84.16
69335;SHT31;56477;52.742;15.242;2023-08-17T02:01:07;18.28;84.71
69335;SHT31;56477;52.742;15.242;2023-08-17T02:03:33;18.28;85.42
69335;SHT31;56477;52.742;15.242;2023-08-17T02:05:59;18.19;85.82
69335;SHT31;56477;52.742;15.242;2023-08-17T02:08:25;18.21;85.98
69335;SHT31;56477;52.742;15.242;2023-08-17T02:10:51;18.15;86.50
69335;SHT31;56477;52.742;15.242;2023-08-17T02:13:18;18.22;86.75
69335;SHT31;56477;52.742;15.242;2023-08-17T02:15:44;18.25;86.76
69335;SHT31;56477;52.742;15.242;2023-08-17T02:18:11;18.28;86.69
69335;SHT31;56477;52.742;15.242;2023-08-17T02:20:37;18.32;87.46
69335;SHT31;56477;52.742;15.242;2023-08-17T02:23:03;18.39;86.52
69335;SHT31;56477;52.742;15.242;2023-08-17T02:25:29;18.45;86.29
69335;SHT31;56477;52.742;15.242;2023-08-17T02:28:03;18.50;86.31
69335;SHT31;56477;52.742;15.242;2023-08-17T02:30:30;18.56;86.35
69335;SHT31;56477;52.742;15.242;2023-08-17T02:32:55;18.59;86.23
69335;SHT31;56477;52.742;15.242;2023-08-17T02:35:22;18.57;86.28
69335;SHT31;56477;52.742;15.242;2023-08-17T02:37:47;18.68;85.95
69335;SHT31;56477;52.742;15.242;2023-08-17T02:40:13;18.64;86.10
69335;SHT31;56477;52.742;15.242;2023-08-17T02:42:39;18.64;86.09
69335;SHT31;56477;52.742;15.242;2023-08-17T02:45:06;18.66;86.20
69335;SHT31;56477;52.742;15.242;2023-08-17T02:47:32;18.60;86.37
69335;SHT31;56477;52.742;15.242;2023-08-17T02:49:58;18.64;86.30
69335;SHT31;56477;52.742;15.242;2023-08-17T02:52:24;18.61;86.30
69335;SHT31;56477;52.742;15.242;2023-08-17T02:54:50;18.57;86.68
69335;SHT31;56477;52.742;15.242;2023-08-17T02:57:16;18.57;86.67
69335;SHT31;56477;52.742;15.242;2023-08-17T02:59:42;18.55;86.88
69335;SHT31;56477;52.742;15.242;2023-08-17T03:02:08;18.59;87.04
69335;SHT31;56477;52.742;15.242;2023-08-17T03:04:34;18.53;86.97
69335;SHT31;56477;52.742;15.242;2023-08-17T03:06:59;18.50;87.32
69335;SHT31;56477;52.742;15.242;2023-08-17T03:09:25;18.47;87.36
69335;SHT31;56477;52.742;15.242;2023-08-17T03:11:51;18.40;87.60
69335;SHT31;56477;52.742;15.242;2023-08-17T03:14:18;18.24;88.22
69335;SHT31;56477;52.742;15.242;2023-08-17T03:16:43;18.16;88.42
69335;SHT31;56477;52.742;15.242;2023-08-17T03:19:09;18.18;88.24
69335;SHT31;56477;52.742;15.242;2023-08-17T03:21:37;18.12;88.23
69335;SHT31;56477;52.742;15.242;2023-08-17T03:24:03;18.05;88.40
69335;SHT31;56477;52.742;15.242;2023-08-17T03:26:29;18.05;88.37
69335;SHT31;56477;52.742;15.242;2023-08-17T03:28:55;18.05;88.55
69335;SHT31;56477;52.742;15.242;2023-08-17T03:31:21;18.04;88.31
69335;SHT31;56477;52.742;15.242;2023-08-17T03:33:48;17.94;88.32
69335;SHT31;56477;52.742;15.242;2023-08-17T03:36:14;17.97;88.03
69335;SHT31;56477;52.742;15.242;2023-08-17T03:38:40;17.87;88.15
69335;SHT31;56477;52.742;15.242;2023-08-17T03:41:06;17.91;88.05
69335;SHT31;56477;52.742;15.242;2023-08-17T03:43:32;17.91;88.02
69335;SHT31;56477;52.742;15.242;2023-08-17T03:45:58;17.89;87.83
69335;SHT31;56477;52.742;15.242;2023-08-17T03:48:24;17.87;87.82
69335;SHT31;56477;52.742;15.242;2023-08-17T03:50:54;17.88;88.01
69335;SHT31;56477;52.742;15.242;2023-08-17T03:53:20;17.85;87.93
69335;SHT31;56477;52.742;15.242;2023-08-17T03:55:47;17.81;88.13
69335;SHT31;56477;52.742;15.242;2023-08-17T03:58:13;17.84;88.12
69335;SHT31;56477;52.742;15.242;2023-08-17T04:00:39;17.82;87.98
69335;SHT31;56477;52.742;15.242;2023-08-17T04:03:06;17.81;88.19
69335;SHT31;56477;52.742;15.242;2023-08-17T04:05:32;17.79;88.12
69335;SHT31;56477;52.742;15.242;2023-08-17T04:08:00;17.81;88.01
69335;SHT31;56477;52.742;15.242;2023-08-17T04:10:28;17.85;87.77
69335;SHT31;56477;52.742;15.242;2023-08-17T04:12:58;17.88;87.49
69335;SHT31;56477;52.742;15.242;2023-08-17T04:15:24;17.92;87.07
69335;SHT31;56477;52.742;15.242;2023-08-17T04:17:50;17.95;87.05
69335;SHT31;56477;52.742;15.242;2023-08-17T04:20:16;18.02;86.84
69335;SHT31;56477;52.742;15.242;2023-08-17T04:22:44;18.06;86.35
69335;SHT31;56477;52.742;15.242;2023-08-17T04:25:09;18.12;86.40
69335;SHT31;56477;52.742;15.242;2023-08-17T04:27:36;18.15;85.99
69335;SHT31;56477;52.742;15.242;2023-08-17T04:30:01;18.16;85.94
69335;SHT31;56477;52.742;15.242;2023-08-17T04:32:27;18.26;85.96
69335;SHT31;56477;52.742;15.242;2023-08-17T04:34:53;18.32;85.74
69335;SHT31;56477;52.742;15.242;2023-08-17T04:37:19;18.33;85.40
69335;SHT31;56477;52.742;15.242;2023-08-17T04:39:45;18.33;85.38
69335;SHT31;56477;52.742;15.242;2023-08-17T04:42:14;18.40;85.29
69335;SHT31;56477;52.742;15.242;2023-08-17T04:44:39;18.46;85.08
69335;SHT31;56477;52.742;15.242;2023-08-17T04:47:06;18.49;85.09
69335;SHT31;56477;52.742;15.242;2023-08-17T04:49:31;18.64;85.22
69335;SHT31;56477;52.742;15.242;2023-08-17T04:51:57;18.78;85.38
69335;SHT31;56477;52.742;15.242;2023-08-17T04:54:23;18.84;84.70
69335;SHT31;56477;52.742;15.242;2023-08-17T04:56:49;18.83;84.31
69335;SHT31;56477;52.742;15.242;2023-08-17T04:59:15;18.97;84.67
69335;SHT31;56477;52.742;15.242;2023-08-17T05:01:41;18.95;83.70
69335;SHT31;56477;52.742;15.242;2023-08-17T05:04:07;18.93;83.69
69335;SHT31;56477;52.742;15.242;2023-08-17T05:06:33;19.03;83.62
69335;SHT31;56477;52.742;15.242;2023-08-17T05:08:59;19.03;84.29
69335;SHT31;56477;52.742;15.242;2023-08-17T05:11:25;19.08;83.67
69335;SHT31;56477;52.742;15.242;2023-08-17T05:13:50;19.11;83.63
69335;SHT31;56477;52.742;15.242;2023-08-17T05:16:17;19.16;83.33
69335;SHT31;56477;52.742;15.242;2023-08-17T05:18:42;19.14;82.46
69335;SHT31;56477;52.742;15.242;2023-08-17T05:21:08;19.24;83.00
69335;SHT31;56477;52.742;15.242;2023-08-17T05:23:34;19.22;81.48
69335;SHT31;56477;52.742;15.242;2023-08-17T05:26:00;19.16;81.81
69335;SHT31;56477;52.742;15.242;2023-08-17T05:28:26;19.19;81.27
69335;SHT31;56477;52.742;15.242;2023-08-17T05:30:53;19.04;80.38
69335;SHT31;56477;52.742;15.242;2023-08-17T05:33:19;19.12;80.03
69335;SHT31;56477;52.742;15.242;2023-08-17T05:35:45;19.15;80.16
69335;SHT31;56477;52.742;15.242;2023-08-17T05:38:10;19.18;79.50
69335;SHT31;56477;52.742;15.242;2023-08-17T05:40:37;19.11;79.85
69335;SHT31;56477;52.742;15.242;2023-08-17T05:43:02;19.15;78.21
69335;SHT31;56477;52.742;15.242;2023-08-17T05:45:28;19.10;77.99
69335;SHT31;56477;52.742;15.242;2023-08-17T05:47:54;19.18;78.49
69335;SHT31;56477;52.742;15.242;2023-08-17T05:50:20;19.16;79.00
69335;SHT31;56477;52.742;15.242;2023-08-17T05:52:46;19.25;79.16
69335;SHT31;56477;52.742;15.242;2023-08-17T05:55:12;19.31;79.66
69335;SHT31;56477;52.742;15.242;2023-08-17T05:57:38;19.31;78.16
69335;SHT31;56477;52.742;15.242;2023-08-17T06:00:04;19.38;77.45
69335;SHT31;56477;52.742;15.242;2023-08-17T06:02:30;19.38;77.25
69335;SHT31;56477;52.742;15.242;2023-08-17T06:04:57;19.46;78.43
69335;SHT31;56477;52.742;15.242;2023-08-17T06:07:22;19.59;79.76
69335;SHT31;56477;52.742;15.242;2023-08-17T06:09:48;19.58;78.70
69335;SHT31;56477;52.742;15.242;2023-08-17T06:12:14;19.69;78.20
69335;SHT31;56477;52.742;15.242;2023-08-17T06:14:58;19.83;78.08
69335;SHT31;56477;52.742;15.242;2023-08-17T06:17:24;19.89;76.43
69335;SHT31;56477;52.742;15.242;2023-08-17T06:19:50;19.89;75.91
69335;SHT31;56477;52.742;15.242;2023-08-17T06:22:16;19.96;76.95
69335;SHT31;56477;52.742;15.242;2023-08-17T06:24:41;19.87;75.75
69335;SHT31;56477;52.742;15.242;2023-08-17T06:27:07;19.77;74.96
69335;SHT31;56477;52.742;15.242;2023-08-17T06:29:33;19.87;74.90
69335;SHT31;56477;52.742;15.242;2023-08-17T06:31:59;19.72;74.93
69335;SHT31;56477;52.742;15.242;2023-08-17T06:34:24;19.67;75.24
69335;SHT31;56477;52.742;15.242;2023-08-17T06:36:58;19.79;76.43
69335;SHT31;56477;52.742;15.242;2023-08-17T06:39:24;19.86;74.78
69335;SHT31;56477;52.742;15.242;2023-08-17T06:41:50;19.73;76.13
69335;SHT31;56477;52.742;15.242;2023-08-17T06:44:15;19.90;75.40
69335;SHT31;56477;52.742;15.242;2023-08-17T06:46:41;19.69;74.71
69335;SHT31;56477;52.742;15.242;2023-08-17T06:49:07;19.53;75.22
69335;SHT31;56477;52.742;15.242;2023-08-17T06:51:34;19.62;75.76
69335;SHT31;56477;52.742;15.242;2023-08-17T06:54:00;19.58;75.13
69335;SHT31;56477;52.742;15.242;2023-08-17T06:56:26;19.48;75.82
69335;SHT31;56477;52.742;15.242;2023-08-17T06:58:52;19.34;75.51
69335;SHT31;56477;52.742;15.242;2023-08-17T07:01:18;19.10;76.92
69335;SHT31;56477;52.742;15.242;2023-08-17T07:03:44;19.14;77.42
69335;SHT31;56477;52.742;15.242;2023-08-17T07:06:11;19.11;76.74
69335;SHT31;56477;52.742;15.242;2023-08-17T07:08:37;19.08;77.61
69335;SHT31;56477;52.742;15.242;2023-08-17T07:11:03;19.05;77.57
69335;SHT31;56477;52.742;15.242;2023-08-17T07:13:31;19.25;77.63
69335;SHT31;56477;52.742;15.242;2023-08-17T07:15:57;19.34;77.43
69335;SHT31;56477;52.742;15.242;2023-08-17T07:18:23;19.41;77.09
69335;SHT31;56477;52.742;15.242;2023-08-17T07:20:48;19.36;77.38
69335;SHT31;56477;52.742;15.242;2023-08-17T07:23:15;19.28;77.76
69335;SHT31;56477;52.742;15.242;2023-08-17T07:25:41;19.39;78.38
69335;SHT31;56477;52.742;15.242;2023-08-17T07:28:06;19.52;77.51
69335;SHT31;56477;52.742;15.242;2023-08-17T07:30:32;19.65;78.06
69335;SHT31;56477;52.742;15.242;2023-08-17T07:32:58;19.79;77.82
69335;SHT31;56477;52.742;15.242;2023-08-17T07:35:24;19.61;78.46
69335;SHT31;56477;52.742;15.242;2023-08-17T07:37:49;19.84;77.75
69335;SHT31;56477;52.742;15.242;2023-08-17T07:40:15;19.90;77.52
69335;SHT31;56477;52.742;15.242;2023-08-17T07:42:41;20.01;77.76
69335;SHT31;56477;52.742;15.242;2023-08-17T07:45:07;20.00;77.82
69335;SHT31;56477;52.742;15.242;2023-08-17T07:47:36;20.06;77.44
69335;SHT31;56477;52.742;15.242;2023-08-17T07:50:04;19.87;78.61
69335;SHT31;56477;52.742;15.242;2023-08-17T07:52:30;20.13;78.43
69335;SHT31;56477;52.742;15.242;2023-08-17T07:54:56;20.22;78.54
69335;SHT31;56477;52.742;15.242;2023-08-17T07:57:22;20.14;79.00
69335;SHT31;56477;52.742;15.242;2023-08-17T07:59:47;20.34;78.58
69335;SHT31;56477;52.742;15.242;2023-08-17T08:02:13;20.40;79.24
69335;SHT31;56477;52.742;15.242;2023-08-17T08:04:39;20.31;79.85
69335;SHT31;56477;52.742;15.242;2023-08-17T08:07:05;20.55;80.17
69335;SHT31;56477;52.742;15.242;2023-08-17T08:09:31;20.68;79.78
69335;SHT31;56477;52.742;15.242;2023-08-17T08:11:57;20.82;79.80
69335;SHT31;56477;52.742;15.242;2023-08-17T08:14:23;21.02;79.66
69335;SHT31;56477;52.742;15.242;2023-08-17T08:16:49;21.04;79.80
69335;SHT31;56477;52.742;15.242;2023-08-17T08:19:14;20.85;79.72
69335;SHT31;56477;52.742;15.242;2023-08-17T08:21:40;21.19;79.47
69335;SHT31;56477;52.742;15.242;2023-08-17T08:24:06;21.27;79.72
69335;SHT31;56477;52.742;15.242;2023-08-17T08:26:32;21.34;79.45
69335;SHT31;56477;52.742;15.242;2023-08-17T08:28:58;21.31;79.17
69335;SHT31;56477;52.742;15.242;2023-08-17T08:31:23;21.40;79.52
69335;SHT31;56477;52.742;15.242;2023-08-17T08:33:49;21.71;78.69
69335;SHT31;56477;52.742;15.242;2023-08-17T08:36:17;21.94;78.06
69335;SHT31;56477;52.742;15.242;2023-08-17T08:38:43;22.19;77.87
69335;SHT31;56477;52.742;15.242;2023-08-17T08:41:09;22.67;76.09
69335;SHT31;56477;52.742;15.242;2023-08-17T08:43:35;22.68;76.56
69335;SHT31;56477;52.742;15.242;2023-08-17T08:46:01;22.83;75.94
69335;SHT31;56477;52.742;15.242;2023-08-17T08:48:27;23.94;72.52
69335;SHT31;56477;52.742;15.242;2023-08-17T08:50:55;24.88;70.86
69335;SHT31;56477;52.742;15.242;2023-08-17T08:53:31;24.65;71.19
69335;SHT31;56477;52.742;15.242;2023-08-17T08:55:59;24.42;71.31
69335;SHT31;56477;52.742;15.242;2023-08-17T08:58:26;23.33;74.04
69335;SHT31;56477;52.742;15.242;2023-08-17T09:00:53;23.41;74.25
69335;SHT31;56477;52.742;15.242;2023-08-17T09:03:20;23.45;74.42
69335;SHT31;56477;52.742;15.242;2023-08-17T09:05:47;23.32;74.55
69335;SHT31;56477;52.742;15.242;2023-08-17T09:08:16;23.07;74.85
69335;SHT31;56477;52.742;15.242;2023-08-17T09:10:42;23.04;75.42
69335;SHT31;56477;52.742;15.242;2023-08-17T09:13:08;23.02;74.90
69335;SHT31;56477;52.742;15.242;2023-08-17T09:15:34;22.87;75.70
69335;SHT31;56477;52.742;15.242;2023-08-17T09:18:01;23.05;75.07
69335;SHT31;56477;52.742;15.242;2023-08-17T09:20:37;23.12;75.17
69335;SHT31;56477;52.742;15.242;2023-08-17T09:23:11;23.05;74.95
69335;SHT31;56477;52.742;15.242;2023-08-17T09:25:43;23.19;75.67
69335;SHT31;56477;52.742;15.242;2023-08-17T09:28:10;23.10;75.14
69335;SHT31;56477;52.742;15.242;2023-08-17T09:33:29;23.25;75.30
69335;SHT31;56477;52.742;15.242;2023-08-17T09:35:56;23.31;75.26
69335;SHT31;56477;52.742;15.242;2023-08-17T09:38:22;23.12;74.71
69335;SHT31;56477;52.742;15.242;2023-08-17T09:40:48;22.90;75.78
69335;SHT31;56477;52.742;15.242;2023-08-17T09:43:15;22.93;75.81
69335;SHT31;56477;52.742;15.242;2023-08-17T09:45:43;22.94;75.99
69335;SHT31;56477;52.742;15.242;2023-08-17T09:48:18;23.21;74.98
69335;SHT31;56477;52.742;15.242;2023-08-17T09:50:44;23.23;75.10
69335;SHT31;56477;52.742;15.242;2023-08-17T09:53:16;23.48;76.06
69335;SHT31;56477;52.742;15.242;2023-08-17T09:55:42;23.52;74.51
69335;SHT31;56477;52.742;15.242;2023-08-17T09:58:09;23.70;73.85
69335;SHT31;56477;52.742;15.242;2023-08-17T10:00:35;23.37;74.20
69335;SHT31;56477;52.742;15.242;2023-08-17T10:03:03;23.51;74.82
69335;SHT31;56477;52.742;15.242;2023-08-17T10:05:32;23.84;74.24
69335;SHT31;56477;52.742;15.242;2023-08-17T10:08:00;23.87;74.21
69335;SHT31;56477;52.742;15.242;2023-08-17T10:10:29;23.81;73.78
69335;SHT31;56477;52.742;15.242;2023-08-17T10:13:42;24.00;72.96
69335;SHT31;56477;52.742;15.242;2023-08-17T10:21:40;25.64;69.96
69335;SHT31;56477;52.742;15.242;2023-08-17T10:24:08;26.59;67.33
69335;SHT31;56477;52.742;15.242;2023-08-17T10:26:35;26.37;67.62
69335;SHT31;56477;52.742;15.242;2023-08-17T10:29:02;25.99;68.49
69335;SHT31;56477;52.742;15.242;2023-08-17T10:31:29;26.61;66.20
69335;SHT31;56477;52.742;15.242;2023-08-17T10:33:56;28.00;64.44
69335;SHT31;56477;52.742;15.242;2023-08-17T10:36:23;28.56;62.26
69335;SHT31;56477;52.742;15.242;2023-08-17T10:39:22;28.33;61.23
69335;SHT31;56477;52.742;15.242;2023-08-17T10:41:49;27.56;62.61
69335;SHT31;56477;52.742;15.242;2023-08-17T10:47:28;26.79;65.36
69335;SHT31;56477;52.742;15.242;2023-08-17T10:50:05;25.89;67.27
69335;SHT31;56477;52.742;15.242;2023-08-17T10:52:36;26.05;67.25
69335;SHT31;56477;52.742;15.242;2023-08-17T10:55:05;25.91;68.66
69335;SHT31;56477;52.742;15.242;2023-08-17T10:57:35;25.68;69.90
69335;SHT31;56477;52.742;15.242;2023-08-17T11:00:22;25.65;68.44
69335;SHT31;56477;52.742;15.242;2023-08-17T11:02:59;25.91;68.98
69335;SHT31;56477;52.742;15.242;2023-08-17T11:05:46;26.57;68.31
69335;SHT31;56477;52.742;15.242;2023-08-17T11:08:35;27.79;64.93
69335;SHT31;56477;52.742;15.242;2023-08-17T11:11:13;28.01;63.73
69335;SHT31;56477;52.742;15.242;2023-08-17T11:13:44;28.21;62.68
69335;SHT31;56477;52.742;15.242;2023-08-17T11:16:12;27.45;64.11
69335;SHT31;56477;52.742;15.242;2023-08-17T11:18:38;27.16;64.57
69335;SHT31;56477;52.742;15.242;2023-08-17T11:21:05;26.69;65.52
69335;SHT31;56477;52.742;15.242;2023-08-17T11:23:33;26.61;66.29
69335;SHT31;56477;52.742;15.242;2023-08-17T11:26:00;26.37;66.61
69335;SHT31;56477;52.742;15.242;2023-08-17T11:28:26;26.43;67.34
69335;SHT31;56477;52.742;15.242;2023-08-17T11:30:57;26.39;67.35
69335;SHT31;56477;52.742;15.242;2023-08-17T11:33:23;26.23;68.07
69335;SHT31;56477;52.742;15.242;2023-08-17T11:35:50;26.59;66.98
69335;SHT31;56477;52.742;15.242;2023-08-17T11:38:16;26.32;67.26
69335;SHT31;56477;52.742;15.242;2023-08-17T11:40:42;26.32;67.25
69335;SHT31;56477;52.742;15.242;2023-08-17T11:43:08;26.08;68.28
69335;SHT31;56477;52.742;15.242;2023-08-17T11:45:34;26.32;68.00
69335;SHT31;56477;52.742;15.242;2023-08-17T11:48:00;26.35;68.24
69335;SHT31;56477;52.742;15.242;2023-08-17T11:50:26;26.50;67.98
69335;SHT31;56477;52.742;15.242;2023-08-17T11:52:52;27.31;65.93
69335;SHT31;56477;52.742;15.242;2023-08-17T11:55:18;27.69;65.72
69335;SHT31;56477;52.742;15.242;2023-08-17T11:57:45;27.71;63.63
69335;SHT31;56477;52.742;15.242;2023-08-17T12:00:17;28.25;62.46
69335;SHT31;56477;52.742;15.242;2023-08-17T12:02:47;28.45;62.87
69335;SHT31;56477;52.742;15.242;2023-08-17T12:05:19;28.55;61.50
69335;SHT31;56477;52.742;15.242;2023-08-17T12:07:45;28.91;60.52
69335;SHT31;56477;52.742;15.242;2023-08-17T12:10:11;29.02;60.77
69335;SHT31;56477;52.742;15.242;2023-08-17T12:12:37;29.62;59.97
69335;SHT31;56477;52.742;15.242;2023-08-17T12:15:05;28.49;61.50
69335;SHT31;56477;52.742;15.242;2023-08-17T12:17:31;29.60;59.56
69335;SHT31;56477;52.742;15.242;2023-08-17T12:19:58;29.02;60.50
69335;SHT31;56477;52.742;15.242;2023-08-17T12:22:25;29.44;60.33
69335;SHT31;56477;52.742;15.242;2023-08-17T12:24:52;30.22;58.43
69335;SHT31;56477;52.742;15.242;2023-08-17T12:27:18;29.31;59.14
69335;SHT31;56477;52.742;15.242;2023-08-17T12:29:50;29.07;59.89
69335;SHT31;56477;52.742;15.242;2023-08-17T12:32:17;29.03;60.86
69335;SHT31;56477;52.742;15.242;2023-08-17T12:34:45;29.81;58.94
69335;SHT31;56477;52.742;15.242;2023-08-17T12:37:11;29.38;59.53
69335;SHT31;56477;52.742;15.242;2023-08-17T12:39:38;29.78;59.85
69335;SHT31;56477;52.742;15.242;2023-08-17T12:42:07;30.19;59.28
69335;SHT31;56477;52.742;15.242;2023-08-17T12:44:33;30.36;57.77
69335;SHT31;56477;52.742;15.242;2023-08-17T12:46:59;29.23;58.23
69335;SHT31;56477;52.742;15.242;2023-08-17T12:49:25;29.34;59.36
69335;SHT31;56477;52.742;15.242;2023-08-17T12:51:51;29.24;59.28
69335;SHT31;56477;52.742;15.242;2023-08-17T12:54:17;29.99;57.83
69335;SHT31;56477;52.742;15.242;2023-08-17T12:56:44;29.85;58.80
69335;SHT31;56477;52.742;15.242;2023-08-17T12:59:10;29.22;59.21
69335;SHT31;56477;52.742;15.242;2023-08-17T13:01:36;28.82;61.14
69335;SHT31;56477;52.742;15.242;2023-08-17T13:04:02;29.22;61.04
69335;SHT31;56477;52.742;15.242;2023-08-17T13:06:28;29.35;60.06
69335;SHT31;56477;52.742;15.242;2023-08-17T13:08:54;29.95;58.57
69335;SHT31;56477;52.742;15.242;2023-08-17T13:11:20;30.55;57.82
69335;SHT31;56477;52.742;15.242;2023-08-17T13:13:46;30.42;57.72
69335;SHT31;56477;52.742;15.242;2023-08-17T13:16:12;29.30;58.92
69335;SHT31;56477;52.742;15.242;2023-08-17T13:18:38;29.98;58.52
69335;SHT31;56477;52.742;15.242;2023-08-17T13:21:04;29.16;58.72
69335;SHT31;56477;52.742;15.242;2023-08-17T13:23:30;28.96;59.64
69335;SHT31;56477;52.742;15.242;2023-08-17T13:25:56;28.93;58.80
69335;SHT31;56477;52.742;15.242;2023-08-17T13:28:22;28.56;61.15
69335;SHT31;56477;52.742;15.242;2023-08-17T13:30:48;29.72;59.61
69335;SHT31;56477;52.742;15.242;2023-08-17T13:33:14;30.49;58.21
69335;SHT31;56477;52.742;15.242;2023-08-17T13:35:42;30.42;57.02
69335;SHT31;56477;52.742;15.242;2023-08-17T13:38:08;29.95;58.55
69335;SHT31;56477;52.742;15.242;2023-08-17T13:40:34;29.29;59.21
69335;SHT31;56477;52.742;15.242;2023-08-17T13:43:02;29.14;60.61
69335;SHT31;56477;52.742;15.242;2023-08-17T13:45:28;30.28;58.76
69335;SHT31;56477;52.742;15.242;2023-08-17T13:47:55;30.39;59.47
69335;SHT31;56477;52.742;15.242;2023-08-17T13:50:20;30.39;57.61
69335;SHT31;56477;52.742;15.242;2023-08-17T13:52:47;29.95;58.60
69335;SHT31;56477;52.742;15.242;2023-08-17T13:55:13;30.94;58.61
69335;SHT31;56477;52.742;15.242;2023-08-17T13:57:39;31.01;57.44
69335;SHT31;56477;52.742;15.242;2023-08-17T14:00:05;30.01;57.80
69335;SHT31;56477;52.742;15.242;2023-08-17T14:02:32;30.66;57.44
69335;SHT31;56477;52.742;15.242;2023-08-17T14:04:58;30.39;57.53
69335;SHT31;56477;52.742;15.242;2023-08-17T14:07:24;30.69;57.66
69335;SHT31;56477;52.742;15.242;2023-08-17T14:09:49;30.04;58.73
69335;SHT31;56477;52.742;15.242;2023-08-17T14:12:16;30.52;57.35
69335;SHT31;56477;52.742;15.242;2023-08-17T14:14:42;30.28;58.02
69335;SHT31;56477;52.742;15.242;2023-08-17T14:17:08;30.55;57.64
69335;SHT31;56477;52.742;15.242;2023-08-17T14:19:33;30.86;57.56
69335;SHT31;56477;52.742;15.242;2023-08-17T14:21:59;30.55;58.21
69335;SHT31;56477;52.742;15.242;2023-08-17T14:24:27;30.29;58.60
69335;SHT31;56477;52.742;15.242;2023-08-17T14:26:53;30.74;57.19
69335;SHT31;56477;52.742;15.242;2023-08-17T14:29:19;30.37;57.05
69335;SHT31;56477;52.742;15.242;2023-08-17T14:31:45;30.56;57.75
69335;SHT31;56477;52.742;15.242;2023-08-17T14:34:10;30.56;57.35
69335;SHT31;56477;52.742;15.242;2023-08-17T14:36:36;30.12;58.07
69335;SHT31;56477;52.742;15.242;2023-08-17T14:39:02;31.22;57.26
69335;SHT31;56477;52.742;15.242;2023-08-17T14:41:28;31.41;55.36
69335;SHT31;56477;52.742;15.242;2023-08-17T14:44:00;31.36;55.59
69335;SHT31;56477;52.742;15.242;2023-08-17T14:46:26;30.98;55.77
69335;SHT31;56477;52.742;15.242;2023-08-17T14:48:52;30.42;57.99
69335;SHT31;56477;52.742;15.242;2023-08-17T14:51:18;29.89;58.48
69335;SHT31;56477;52.742;15.242;2023-08-17T14:53:44;29.72;58.87
69335;SHT31;56477;52.742;15.242;2023-08-17T14:56:10;29.60;60.37
69335;SHT31;56477;52.742;15.242;2023-08-17T14:58:36;29.16;61.23
69335;SHT31;56477;52.742;15.242;2023-08-17T15:01:02;29.12;60.55
69335;SHT31;56477;52.742;15.242;2023-08-17T15:03:28;29.44;60.24
69335;SHT31;56477;52.742;15.242;2023-08-17T15:05:55;29.92;60.22
69335;SHT31;56477;52.742;15.242;2023-08-17T15:08:20;29.64;59.58
69335;SHT31;56477;52.742;15.242;2023-08-17T15:10:47;29.68;58.05
69335;SHT31;56477;52.742;15.242;2023-08-17T15:13:16;29.89;57.03
69335;SHT31;56477;52.742;15.242;2023-08-17T15:15:43;29.57;58.44
69335;SHT31;56477;52.742;15.242;2023-08-17T15:18:10;29.55;57.29
69335;SHT31;56477;52.742;15.242;2023-08-17T15:20:36;29.07;58.72
69335;SHT31;56477;52.742;15.242;2023-08-17T15:23:01;28.76;60.03
69335;SHT31;56477;52.742;15.242;2023-08-17T15:25:28;28.79;59.74
69335;SHT31;56477;52.742;15.242;2023-08-17T15:27:54;28.85;59.21
69335;SHT31;56477;52.742;15.242;2023-08-17T15:30:20;28.82;59.50